Overview Statistics Trail Chart Weather Telemetry Raw packets
 

This is the latest recevied weather packets stored in our database for station/object DL2GFH-3. If no packets are shown the sender has not sent any weather packets the latest 10 day(s).

<< 23 24 25 26 27 28 29 >>
Time Temp. Humidity Pressure Rain* Wind** Luminosity Snow
1776998927 22.22° C 20% 1021.5 hPa - - - -
1776998022 15° C 27% 1022 hPa - - - -
1776997116 15° C 27% 1022 hPa - - - -
1776996211 15.56° C 27% 1022.1 hPa - - - -
1776995305 16.11° C 26% 1022 hPa - - - -
1776994400 16.67° C 25% 1022.1 hPa - - - -
1776993495 17.22° C 25% 1022.2 hPa - - - -
1776992589 18.33° C 24% 1022.3 hPa - - - -
1776991684 19.44° C 23% 1022.3 hPa - - - -
1776990778 18.33° C 24% 1022.5 hPa - - - -
1776989873 20° C 23% 1022.4 hPa - - - -
1776988968 19.44° C 24% 1022.5 hPa - - - -
1776988062 17.78° C 25% 1022.8 hPa - - - -
1776987157 18.33° C 25% 1022.9 hPa - - - -
1776986251 17.78° C 26% 1023 hPa - - - -
1776985346 18.33° C 25% 1023.1 hPa - - - -
1776984440 17.78° C 26% 1023.1 hPa - - - -
1776983535 18.33° C 26% 1023.2 hPa - - - -
1776982630 18.33° C 26% 1023.1 hPa - - - -
1776981724 17.78° C 26% 1023.1 hPa - - - -
1776980819 17.78° C 26% 1023.1 hPa - - - -
1776979913 18.33° C 26% 1023 hPa - - - -
1776979008 18.89° C 26% 1023.1 hPa - - - -
1776978106 19.44° C 25% 1023.1 hPa - - - -
1776977197 20° C 24% 1022.8 hPa - - - -

* Rain since midnight (hover to see other rain measurements)
** Current wind speed in m/s (hover to see current wind gust speed)